Time;durP1;ratioP1;P1;durP2;ratioP2;P2;SDS_P1;SDS_P2;PMS_P1;PMS_P2;Temp;Humidity;BMP_temperature;BMP_pressure;BME280_temperature;BME280_humidity;BME280_pressure;Samples;Min_cycle;Max_cycle;Signal;HPM_P1;HPM_P2
2023/11/11 00:01:19;;;;;;;0.93;0.70;;;7.40;99.90;;;;;;5087618;28;20177;-63
2023/11/11 00:03:45;;;;;;;1.00;0.60;;;7.40;99.90;;;;;;5088168;28;20474;-64
2023/11/11 00:06:10;;;;;;;0.70;0.70;;;7.30;99.90;;;;;;5087474;28;21010;-63
2023/11/11 00:08:36;;;;;;;2.60;0.90;;;7.20;99.90;;;;;;5088636;28;20432;-63
2023/11/11 00:11:03;;;;;;;0.60;0.60;;;7.20;99.90;;;;;;5091043;28;20184;-63
2023/11/11 00:13:28;;;;;;;0.60;0.50;;;7.20;99.90;;;;;;5069775;28;20183;-63
2023/11/11 00:15:54;;;;;;;1.17;0.90;;;7.20;99.90;;;;;;5088991;28;21139;-64
2023/11/11 00:18:20;;;;;;;1.57;1.10;;;7.20;99.90;;;;;;5086869;28;20918;-63
2023/11/11 00:20:49;;;;;;;1.07;0.80;;;7.10;99.90;;;;;;5088290;28;20494;-63
2023/11/11 00:23:15;;;;;;;1.40;1.00;;;7.20;99.90;;;;;;5068747;28;20216;-64
2023/11/11 00:25:46;;;;;;;1.00;0.90;;;7.10;99.90;;;;;;5087191;28;20434;-63
2023/11/11 00:28:12;;;;;;;1.43;1.17;;;7.10;99.90;;;;;;5087214;28;20441;-63
2023/11/11 00:30:38;;;;;;;1.30;0.90;;;7.10;99.90;;;;;;5087233;28;20425;-63
2023/11/11 00:33:04;;;;;;;2.80;0.80;;;7.00;99.90;;;;;;5083815;28;20964;-63
2023/11/11 00:35:29;;;;;;;1.17;0.90;;;7.00;99.90;;;;;;5086581;28;20869;-64
2023/11/11 00:37:55;;;;;;;1.73;0.97;;;7.00;99.90;;;;;;5087438;28;20722;-63
2023/11/11 00:40:21;;;;;;;4.07;1.40;;;7.00;99.90;;;;;;5087501;28;21072;-63
2023/11/11 00:42:47;;;;;;;1.13;1.03;;;7.00;99.90;;;;;;5087971;28;20211;-63
2023/11/11 00:45:13;;;;;;;1.57;1.40;;;7.00;99.90;;;;;;5085147;28;21034;-63
2023/11/11 00:47:39;;;;;;;1.50;1.30;;;7.10;99.90;;;;;;5092587;28;20681;-64
2023/11/11 00:50:06;;;;;;;1.40;1.20;;;7.00;99.90;;;;;;5089430;28;20490;-63
2023/11/11 00:52:36;;;;;;;1.17;1.07;;;7.00;99.90;;;;;;5092498;28;20791;-63
2023/11/11 00:55:03;;;;;;;3.63;1.30;;;7.10;99.90;;;;;;5093509;28;20429;-63
2023/11/11 00:57:29;;;;;;;2.17;1.60;;;7.10;99.90;;;;;;5093033;28;20975;-63
2023/11/11 00:59:54;;;;;;;1.90;1.50;;;7.10;99.90;;;;;;5092251;28;20434;-63
2023/11/11 01:02:20;;;;;;;6.37;2.03;;;7.20;99.90;;;;;;5090778;28;20431;-63
2023/11/11 01:04:46;;;;;;;1.60;1.50;;;7.20;99.90;;;;;;5091169;28;20247;-63
2023/11/11 01:07:12;;;;;;;2.43;1.90;;;7.20;99.90;;;;;;5095698;28;20176;-63
2023/11/11 01:09:39;;;;;;;2.90;2.40;;;7.20;99.90;;;;;;5091349;28;20278;-63
2023/11/11 01:12:05;;;;;;;2.03;1.83;;;7.20;99.90;;;;;;5090586;28;20426;-64
2023/11/11 01:14:30;;;;;;;2.37;2.03;;;7.20;99.90;;;;;;5089859;28;20596;-63
2023/11/11 01:16:56;;;;;;;2.63;2.23;;;7.20;99.90;;;;;;5095529;28;20422;-63
2023/11/11 01:19:22;;;;;;;2.70;2.23;;;7.20;99.90;;;;;;5058861;28;20646;-63
2023/11/11 01:21:48;;;;;;;2.80;2.50;;;7.20;99.90;;;;;;5090769;28;20195;-63
2023/11/11 01:24:14;;;;;;;3.57;3.27;;;7.20;99.90;;;;;;5089392;28;20203;-64
2023/11/11 01:26:40;;;;;;;4.00;3.27;;;7.20;99.90;;;;;;5090533;28;20465;-64
2023/11/11 01:29:05;;;;;;;4.77;3.73;;;7.20;99.90;;;;;;5089776;28;20509;-64
2023/11/11 01:31:31;;;;;;;4.70;4.30;;;7.30;99.90;;;;;;5090505;28;20275;-63
2023/11/11 01:33:57;;;;;;;4.17;3.77;;;7.30;99.90;;;;;;5058696;28;20194;-63
2023/11/11 01:36:23;;;;;;;4.03;3.63;;;7.30;99.90;;;;;;5093429;28;20173;-64
2023/11/11 01:38:49;;;;;;;4.53;4.00;;;7.40;99.90;;;;;;5090507;28;20280;-63
2023/11/11 01:41:14;;;;;;;6.20;5.33;;;7.40;99.90;;;;;;5090768;28;20421;-64
2023/11/11 01:43:40;;;;;;;8.13;6.50;;;7.30;99.90;;;;;;5089296;28;20938;-63
2023/11/11 01:46:06;;;;;;;10.13;7.90;;;7.20;99.90;;;;;;5089179;28;20207;-63
2023/11/11 01:48:34;;;;;;;9.70;7.00;;;7.20;99.90;;;;;;5090895;28;20187;-63
2023/11/11 01:51:01;;;;;;;12.10;8.13;;;7.20;99.90;;;;;;5089324;28;20433;-63
2023/11/11 01:53:28;;;;;;;11.47;8.83;;;7.20;99.90;;;;;;5089263;28;20434;-63
2023/11/11 01:55:53;;;;;;;18.80;11.83;;;7.30;99.90;;;;;;5089695;28;20430;-63
2023/11/11 01:58:21;;;;;;;17.47;12.00;;;7.40;99.90;;;;;;5089965;28;21266;-64
2023/11/11 02:00:47;;;;;;;17.33;11.97;;;7.50;99.90;;;;;;5087748;28;20832;-63
2023/11/11 02:03:14;;;;;;;19.53;13.20;;;7.50;99.90;;;;;;5088922;28;20465;-63
2023/11/11 02:05:41;;;;;;;22.23;14.07;;;7.50;99.90;;;;;;5090042;28;20429;-63
2023/11/11 02:08:07;;;;;;;21.47;13.63;;;7.50;99.90;;;;;;5086643;28;20517;-63
2023/11/11 02:10:38;;;;;;;22.93;14.23;;;7.40;99.90;;;;;;5090169;28;20456;-64
2023/11/11 02:13:05;;;;;;;26.30;16.50;;;7.50;99.90;;;;;;5088450;28;20426;-63
2023/11/11 02:15:31;;;;;;;21.63;15.37;;;7.50;99.90;;;;;;5090628;28;20427;-64
2023/11/11 02:18:03;;;;;;;26.77;16.50;;;7.60;99.90;;;;;;5089003;28;20941;-64
2023/11/11 02:20:32;;;;;;;25.03;16.80;;;7.60;99.90;;;;;;5089749;28;20432;-63
2023/11/11 02:22:59;;;;;;;24.20;17.20;;;7.60;99.90;;;;;;5092064;28;20964;-63
2023/11/11 02:25:25;;;;;;;23.77;17.93;;;7.70;99.90;;;;;;5088690;28;20464;-63
2023/11/11 02:27:51;;;;;;;27.40;17.97;;;7.60;99.90;;;;;;5088033;28;20426;-63
2023/11/11 02:30:17;;;;;;;26.47;18.80;;;7.60;99.90;;;;;;5089590;28;20180;-63
2023/11/11 02:32:42;;;;;;;25.67;18.80;;;7.70;99.90;;;;;;5089074;28;20212;-63
2023/11/11 02:35:08;;;;;;;26.57;18.03;;;7.70;99.90;;;;;;5088659;28;20818;-63
2023/11/11 02:37:34;;;;;;;27.47;19.13;;;7.70;99.90;;;;;;5087993;28;20422;-63
2023/11/11 02:39:59;;;;;;;27.00;20.00;;;7.70;99.90;;;;;;5089652;28;20554;-63
2023/11/11 02:42:25;;;;;;;27.17;20.07;;;7.70;99.90;;;;;;5090151;28;20222;-63
2023/11/11 02:44:51;;;;;;;26.37;19.97;;;7.60;99.90;;;;;;5087632;28;20219;-63
2023/11/11 02:47:17;;;;;;;25.20;19.30;;;7.70;99.90;;;;;;5090336;28;20484;-63
2023/11/11 02:49:43;;;;;;;25.20;18.83;;;7.70;99.90;;;;;;5088536;28;20187;-63
2023/11/11 02:52:08;;;;;;;25.20;18.23;;;7.70;99.90;;;;;;5090094;28;20195;-64
2023/11/11 02:54:34;;;;;;;24.90;18.07;;;7.70;99.90;;;;;;5087513;28;20202;-64
2023/11/11 02:57:00;;;;;;;23.43;18.50;;;7.80;99.90;;;;;;5089173;28;20299;-63
2023/11/11 02:59:26;;;;;;;25.20;19.10;;;7.80;99.90;;;;;;5090255;28;20269;-64
2023/11/11 03:01:52;;;;;;;23.83;19.17;;;7.90;99.90;;;;;;5085614;28;20422;-63
2023/11/11 03:04:17;;;;;;;24.90;17.60;;;7.90;99.90;;;;;;5086953;28;20239;-63
2023/11/11 03:06:43;;;;;;;22.50;15.43;;;7.90;99.90;;;;;;5089399;28;20187;-63
2023/11/11 03:09:12;;;;;;;20.63;16.93;;;7.80;99.90;;;;;;5085847;28;20206;-64
2023/11/11 03:11:39;;;;;;;18.60;14.40;;;7.80;99.90;;;;;;5089208;28;20592;-63
2023/11/11 03:14:05;;;;;;;24.50;18.13;;;7.80;99.90;;;;;;5069889;28;20947;-64
2023/11/11 03:16:39;;;;;;;22.77;17.17;;;7.80;99.90;;;;;;5089780;28;20414;-63
2023/11/11 03:19:05;;;;;;;21.30;16.03;;;7.70;99.90;;;;;;5089023;28;20175;-64
2023/11/11 03:21:32;;;;;;;19.47;16.00;;;7.70;99.90;;;;;;5089477;28;20467;-63
2023/11/11 03:23:58;;;;;;;19.47;16.40;;;7.70;99.90;;;;;;5086891;28;21271;-63
2023/11/11 03:26:24;;;;;;;20.07;15.60;;;7.70;99.90;;;;;;5089671;28;20561;-63
2023/11/11 03:28:50;;;;;;;25.70;17.40;;;7.70;99.90;;;;;;5088994;28;20431;-63
2023/11/11 03:31:17;;;;;;;20.73;16.00;;;7.60;99.90;;;;;;5074177;28;20670;-63
2023/11/11 03:33:43;;;;;;;18.73;13.80;;;7.60;99.90;;;;;;5069278;28;21061;-64
2023/11/11 03:36:09;;;;;;;17.33;14.20;;;7.60;99.90;;;;;;5088379;28;20429;-63
2023/11/11 03:38:34;;;;;;;17.80;14.67;;;7.70;99.90;;;;;;5089491;28;20429;-63
2023/11/11 03:41:00;;;;;;;17.60;13.70;;;7.70;99.90;;;;;;5088415;28;20450;-63
2023/11/11 03:43:26;;;;;;;17.50;14.57;;;7.60;99.90;;;;;;5088453;28;20696;-63
2023/11/11 03:45:51;;;;;;;18.30;13.80;;;7.60;99.90;;;;;;5088611;28;20196;-63
2023/11/11 03:48:17;;;;;;;21.30;15.70;;;7.60;99.90;;;;;;5088078;28;20172;-63
2023/11/11 03:50:43;;;;;;;19.37;15.80;;;7.40;99.90;;;;;;5087486;28;20186;-63
2023/11/11 03:53:09;;;;;;;21.77;15.77;;;7.50;99.90;;;;;;5087149;28;21661;-64
2023/11/11 03:55:34;;;;;;;19.47;14.40;;;7.40;99.90;;;;;;5090689;28;20183;-63
2023/11/11 03:58:00;;;;;;;18.63;14.83;;;7.40;99.90;;;;;;5071947;28;20241;-63
2023/11/11 04:00:26;;;;;;;16.57;14.07;;;7.40;99.90;;;;;;5089006;28;20211;-64
2023/11/11 04:02:53;;;;;;;17.17;13.20;;;7.50;99.90;;;;;;5088071;28;20726;-63
2023/11/11 04:05:20;;;;;;;18.20;13.20;;;7.50;99.90;;;;;;5087221;28;20491;-63
2023/11/11 04:07:47;;;;;;;18.50;14.00;;;7.50;99.90;;;;;;5091594;28;20430;-63
2023/11/11 04:10:17;;;;;;;21.27;14.20;;;7.50;99.90;;;;;;5088271;28;20446;-63
2023/11/11 04:12:44;;;;;;;16.87;13.63;;;7.60;99.90;;;;;;5069692;28;20425;-63
2023/11/11 04:15:10;;;;;;;16.17;13.83;;;7.40;99.90;;;;;;5087256;28;20488;-63
2023/11/11 04:17:42;;;;;;;18.23;14.20;;;7.40;99.90;;;;;;5088784;28;20433;-63
2023/11/11 04:20:10;;;;;;;19.23;14.73;;;7.50;99.90;;;;;;5086753;28;20430;-63
2023/11/11 04:22:40;;;;;;;20.80;15.40;;;7.50;99.90;;;;;;5086383;28;20487;-63
2023/11/11 04:25:07;;;;;;;16.90;12.60;;;7.50;99.90;;;;;;5087277;28;20520;-63
2023/11/11 04:27:36;;;;;;;17.87;13.80;;;7.50;99.90;;;;;;5087996;28;20429;-63
2023/11/11 04:30:06;;;;;;;17.10;13.20;;;7.50;99.90;;;;;;5087516;28;20433;-64
2023/11/11 04:32:36;;;;;;;16.60;13.27;;;7.50;99.90;;;;;;5087812;28;20431;-63
2023/11/11 04:35:02;;;;;;;18.13;14.63;;;7.60;99.90;;;;;;5085735;28;20502;-63
2023/11/11 04:37:28;;;;;;;18.20;13.73;;;7.60;99.90;;;;;;5087478;28;20426;-63
2023/11/11 04:40:00;;;;;;;16.37;12.93;;;7.60;99.90;;;;;;5088590;28;20510;-63
2023/11/11 04:42:26;;;;;;;13.93;11.70;;;7.60;99.90;;;;;;5087566;28;20426;-63
2023/11/11 04:44:53;;;;;;;17.63;12.90;;;7.60;99.90;;;;;;5087316;28;21023;-63
2023/11/11 04:47:20;;;;;;;16.27;12.07;;;7.60;99.90;;;;;;5085108;28;20474;-63
2023/11/11 04:49:47;;;;;;;15.27;12.47;;;7.50;99.90;;;;;;5087591;28;20429;-64
2023/11/11 04:52:12;;;;;;;21.13;13.47;;;7.50;99.90;;;;;;5087170;28;20529;-63
2023/11/11 04:54:38;;;;;;;15.83;12.30;;;7.60;99.90;;;;;;5084567;28;20516;-63
2023/11/11 04:57:05;;;;;;;16.70;11.77;;;7.60;99.90;;;;;;5088133;28;20425;-63
2023/11/11 04:59:31;;;;;;;13.87;11.67;;;7.60;99.90;;;;;;5087829;28;20593;-64
2023/11/11 05:01:57;;;;;;;13.03;11.27;;;7.60;99.90;;;;;;5088660;28;20474;-64
2023/11/11 05:04:23;;;;;;;15.03;10.80;;;7.70;99.90;;;;;;5089251;28;20454;-63
2023/11/11 05:06:50;;;;;;;14.53;11.33;;;7.60;99.90;;;;;;5087789;28;20220;-63
2023/11/11 05:09:16;;;;;;;15.80;10.43;;;7.60;99.90;;;;;;5087253;28;20436;-63
2023/11/11 05:11:45;;;;;;;10.40;9.20;;;7.50;99.90;;;;;;5088380;28;20431;-63
2023/11/11 05:14:13;;;;;;;11.63;10.10;;;7.50;99.90;;;;;;5086267;28;20496;-63
2023/11/11 05:16:44;;;;;;;15.40;9.90;;;7.40;99.90;;;;;;5090715;28;20449;-63
2023/11/11 05:19:10;;;;;;;10.27;8.90;;;7.40;99.90;;;;;;5084124;28;20881;-63
2023/11/11 05:21:37;;;;;;;10.13;9.10;;;7.40;99.90;;;;;;5087643;28;20422;-63
2023/11/11 05:24:03;;;;;;;9.63;7.80;;;7.40;99.90;;;;;;5086780;28;20960;-63
2023/11/11 05:26:30;;;;;;;10.23;8.90;;;7.40;99.90;;;;;;5087070;28;20435;-63
2023/11/11 05:29:01;;;;;;;10.43;8.03;;;7.40;99.90;;;;;;5088468;28;20440;-63
2023/11/11 05:31:31;;;;;;;11.40;8.27;;;7.50;99.90;;;;;;5087496;28;20513;-63
2023/11/11 05:34:00;;;;;;;10.40;8.67;;;7.50;99.90;;;;;;5087666;28;21244;-63
2023/11/11 05:36:26;;;;;;;8.97;7.57;;;7.40;99.90;;;;;;5088238;28;20483;-63
2023/11/11 05:38:55;;;;;;;8.87;7.97;;;7.50;99.90;;;;;;5091013;28;20423;-63
2023/11/11 05:41:23;;;;;;;12.90;8.30;;;7.30;99.90;;;;;;5090450;28;20856;-63
2023/11/11 05:43:48;;;;;;;9.97;8.97;;;7.40;99.90;;;;;;5090132;28;20954;-63
2023/11/11 05:46:14;;;;;;;9.83;8.43;;;7.50;99.90;;;;;;5090532;28;20441;-63
2023/11/11 05:48:41;;;;;;;8.73;7.80;;;7.40;99.90;;;;;;5090960;28;20341;-63
2023/11/11 05:51:07;;;;;;;11.13;7.77;;;7.50;99.90;;;;;;5071468;28;20179;-63
2023/11/11 05:53:35;;;;;;;9.63;7.70;;;7.50;99.90;;;;;;5089045;28;20425;-63
2023/11/11 05:56:01;;;;;;;8.20;7.37;;;7.50;99.90;;;;;;5091121;28;20423;-63
2023/11/11 05:58:27;;;;;;;9.10;7.50;;;7.50;99.90;;;;;;5094033;28;20425;-63
2023/11/11 06:00:52;;;;;;;7.43;6.60;;;7.50;99.90;;;;;;5090956;28;20444;-63
2023/11/11 06:03:18;;;;;;;9.67;6.03;;;7.50;99.90;;;;;;5090133;28;20215;-63
2023/11/11 06:05:45;;;;;;;7.00;5.50;;;7.40;99.90;;;;;;5089672;28;20194;-63
2023/11/11 06:08:11;;;;;;;7.87;5.93;;;7.40;99.90;;;;;;5090987;28;20605;-63
2023/11/11 06:10:38;;;;;;;9.23;4.77;;;7.40;99.90;;;;;;5088317;28;20430;-62
2023/11/11 06:13:07;;;;;;;10.13;4.80;;;7.40;99.90;;;;;;5089274;28;20866;-63
2023/11/11 06:15:35;;;;;;;5.33;4.10;;;7.40;99.90;;;;;;5087645;28;20434;-63
2023/11/11 06:18:01;;;;;;;4.73;3.90;;;7.40;99.90;;;;;;5090125;28;20427;-63
2023/11/11 06:20:28;;;;;;;4.63;3.73;;;7.40;99.90;;;;;;5089469;28;20432;-63
2023/11/11 06:22:54;;;;;;;3.70;3.27;;;7.40;99.90;;;;;;5089351;28;20454;-63
2023/11/11 06:25:21;;;;;;;3.30;2.70;;;7.40;99.90;;;;;;5086281;28;20437;-63
2023/11/11 06:27:48;;;;;;;4.60;3.13;;;7.30;99.90;;;;;;5086350;28;20437;-63
2023/11/11 06:30:16;;;;;;;3.97;2.97;;;7.40;99.90;;;;;;5089183;28;21159;-63
2023/11/11 06:32:42;;;;;;;3.93;2.53;;;7.40;99.90;;;;;;5089076;28;20457;-62
2023/11/11 06:35:08;;;;;;;3.80;3.00;;;7.30;99.90;;;;;;5089492;28;20438;-62
2023/11/11 06:37:37;;;;;;;3.83;2.17;;;7.30;99.90;;;;;;5088374;28;20464;-63
2023/11/11 06:40:03;;;;;;;4.50;2.30;;;7.30;99.90;;;;;;5093327;28;20188;-62
2023/11/11 06:42:30;;;;;;;5.33;3.00;;;7.30;99.90;;;;;;5090262;28;21276;-63
2023/11/11 06:44:56;;;;;;;5.73;2.60;;;7.40;99.90;;;;;;5088646;28;20488;-63
2023/11/11 06:47:22;;;;;;;3.57;2.30;;;7.40;99.90;;;;;;5087410;28;21320;-63
2023/11/11 06:49:48;;;;;;;2.43;1.97;;;7.30;99.90;;;;;;5088754;28;20684;-63
2023/11/11 06:52:14;;;;;;;2.60;1.87;;;7.40;99.90;;;;;;5087123;28;20445;-63
2023/11/11 06:54:40;;;;;;;1.80;1.50;;;7.30;99.90;;;;;;5087928;28;20866;-63
2023/11/11 06:57:06;;;;;;;3.53;1.80;;;7.30;99.90;;;;;;5090070;28;20184;-63
2023/11/11 06:59:32;;;;;;;4.53;2.13;;;7.30;99.90;;;;;;5089823;28;21277;-63
2023/11/11 07:01:58;;;;;;;3.33;1.60;;;7.40;99.90;;;;;;5089816;28;20852;-63
2023/11/11 07:04:24;;;;;;;6.10;2.40;;;7.30;99.90;;;;;;5088812;28;20552;-63
2023/11/11 07:06:49;;;;;;;4.13;2.10;;;7.40;99.90;;;;;;5085982;28;20192;-63
2023/11/11 07:09:15;;;;;;;3.57;2.73;;;7.30;99.90;;;;;;5089600;28;20180;-63
2023/11/11 07:11:41;;;;;;;4.00;3.23;;;7.40;99.90;;;;;;5089152;28;20196;-63
2023/11/11 07:14:07;;;;;;;5.73;4.13;;;7.40;99.90;;;;;;5089650;28;20188;-63
2023/11/11 07:16:33;;;;;;;8.40;4.87;;;7.30;99.90;;;;;;5090756;28;20487;-63
2023/11/11 07:18:59;;;;;;;7.37;5.07;;;7.30;99.90;;;;;;5088082;28;20734;-63
2023/11/11 07:21:25;;;;;;;8.80;6.07;;;7.30;99.90;;;;;;5088434;28;20179;-63
2023/11/11 07:23:51;;;;;;;7.80;6.00;;;7.40;99.90;;;;;;5088107;28;20216;-63
2023/11/11 07:26:17;;;;;;;10.50;7.67;;;7.40;99.90;;;;;;5087222;28;20433;-63
2023/11/11 07:28:45;;;;;;;10.10;6.90;;;7.40;99.90;;;;;;5089096;28;20438;-63
2023/11/11 07:31:23;;;;;;;9.70;6.70;;;7.50;99.90;;;;;;5088322;28;20591;-63
2023/11/11 07:33:49;;;;;;;8.93;8.03;;;7.60;99.90;;;;;;5087961;28;20433;-63
2023/11/11 07:36:15;;;;;;;10.13;7.83;;;7.50;99.90;;;;;;5091883;28;20425;-63
2023/11/11 07:38:41;;;;;;;8.37;6.70;;;7.60;99.90;;;;;;5089328;28;20437;-63
2023/11/11 07:41:08;;;;;;;12.03;9.20;;;7.60;99.90;;;;;;5088670;28;20187;-63
2023/11/11 07:43:37;;;;;;;8.00;7.20;;;7.60;99.90;;;;;;5089804;28;20945;-63
2023/11/11 07:46:05;;;;;;;9.43;8.43;;;7.60;99.90;;;;;;5087219;28;20441;-63
2023/11/11 07:48:33;;;;;;;11.20;8.40;;;7.60;99.90;;;;;;5088881;28;20538;-63
2023/11/11 07:51:01;;;;;;;16.37;9.87;;;7.70;99.90;;;;;;5087090;28;20428;-63
2023/11/11 07:53:26;;;;;;;13.60;9.83;;;7.70;99.90;;;;;;5091067;28;21288;-63
2023/11/11 07:55:52;;;;;;;12.17;10.20;;;7.50;99.90;;;;;;5087529;28;20434;-63
2023/11/11 07:58:18;;;;;;;13.73;10.33;;;7.50;99.90;;;;;;5089346;28;20180;-64
2023/11/11 08:00:44;;;;;;;13.30;9.80;;;7.60;99.90;;;;;;5091179;28;20570;-63
2023/11/11 08:03:11;;;;;;;17.70;11.10;;;7.60;99.90;;;;;;5083703;28;20203;-63
2023/11/11 08:05:37;;;;;;;12.60;10.30;;;7.50;99.90;;;;;;5088525;28;20436;-63
2023/11/11 08:08:03;;;;;;;17.23;10.33;;;7.50;99.90;;;;;;5091248;28;20427;-63
2023/11/11 08:10:29;;;;;;;10.67;9.57;;;7.60;99.90;;;;;;5089290;28;20430;-63
2023/11/11 08:12:55;;;;;;;14.67;10.90;;;7.60;99.90;;;;;;5086304;28;20917;-63
2023/11/11 08:15:21;;;;;;;12.30;9.97;;;7.60;99.90;;;;;;5085888;28;21050;-63
2023/11/11 08:17:49;;;;;;;12.47;9.47;;;7.60;99.90;;;;;;5088254;28;20429;-63
2023/11/11 08:20:18;;;;;;;16.43;10.80;;;7.60;99.90;;;;;;5085091;28;20421;-63
2023/11/11 08:22:45;;;;;;;13.40;10.60;;;7.60;99.90;;;;;;5087801;28;21466;-63
2023/11/11 08:25:14;;;;;;;15.47;11.03;;;7.60;99.90;;;;;;5086206;28;20430;-63
2023/11/11 08:27:44;;;;;;;12.60;10.03;;;7.60;99.90;;;;;;5088763;28;21126;-63
2023/11/11 08:30:10;;;;;;;15.87;10.80;;;7.60;99.90;;;;;;5087420;28;20442;-63
2023/11/11 08:32:37;;;;;;;12.90;11.20;;;7.70;99.90;;;;;;5087223;28;21234;-63
2023/11/11 08:35:05;;;;;;;12.80;11.30;;;7.70;99.90;;;;;;5086499;28;20426;-64
2023/11/11 08:37:32;;;;;;;14.53;10.00;;;7.60;99.90;;;;;;5090905;28;20429;-63
2023/11/11 08:39:58;;;;;;;10.83;9.27;;;7.70;99.90;;;;;;5087903;28;20437;-63
2023/11/11 08:42:24;;;;;;;17.10;11.10;;;7.70;99.90;;;;;;5069479;28;20458;-63
2023/11/11 08:44:51;;;;;;;13.00;10.13;;;7.60;99.90;;;;;;5087736;28;21251;-63
2023/11/11 08:47:17;;;;;;;14.90;10.60;;;7.70;99.90;;;;;;5087118;28;20986;-63
2023/11/11 08:49:43;;;;;;;14.13;11.30;;;7.60;99.90;;;;;;5087159;28;20426;-63
2023/11/11 08:52:09;;;;;;;12.67;10.10;;;7.60;99.90;;;;;;5088929;28;20431;-63
2023/11/11 08:54:35;;;;;;;16.30;10.20;;;7.60;99.90;;;;;;5087191;28;20441;-64
2023/11/11 08:57:01;;;;;;;17.10;11.50;;;7.60;99.90;;;;;;5090072;28;20430;-63
2023/11/11 08:59:26;;;;;;;13.90;10.40;;;7.70;99.90;;;;;;5055258;28;20234;-64
2023/11/11 09:01:52;;;;;;;11.90;10.37;;;7.70;99.90;;;;;;5088486;28;20276;-63
2023/11/11 09:04:18;;;;;;;14.53;10.47;;;7.70;99.90;;;;;;5086345;28;20219;-63
2023/11/11 09:06:44;;;;;;;11.10;9.73;;;7.70;99.90;;;;;;5070760;28;20742;-63
2023/11/11 09:09:14;;;;;;;12.17;10.40;;;7.70;99.90;;;;;;5089285;28;20187;-64
2023/11/11 09:11:40;;;;;;;13.40;10.87;;;7.80;99.90;;;;;;5092469;28;20204;-63
2023/11/11 09:14:06;;;;;;;13.63;10.30;;;7.70;99.90;;;;;;5088571;28;20437;-63
2023/11/11 09:16:32;;;;;;;12.87;10.03;;;7.60;99.90;;;;;;5091965;28;20449;-63
2023/11/11 09:18:59;;;;;;;13.00;9.77;;;7.70;99.90;;;;;;5091892;28;20248;-63
2023/11/11 09:21:26;;;;;;;12.70;10.40;;;7.70;99.90;;;;;;5090179;28;21318;-63
2023/11/11 09:23:52;;;;;;;14.97;10.67;;;7.80;99.90;;;;;;5087831;28;20523;-63
2023/11/11 09:26:19;;;;;;;17.47;11.13;;;7.80;99.90;;;;;;5088120;28;20437;-63
2023/11/11 09:28:46;;;;;;;11.53;10.33;;;7.80;99.90;;;;;;5091259;28;20432;-63
2023/11/11 09:31:14;;;;;;;16.53;12.00;;;7.80;99.90;;;;;;5087414;28;20476;-63
2023/11/11 09:33:41;;;;;;;13.80;11.57;;;7.70;99.90;;;;;;5091028;28;20440;-63
2023/11/11 09:36:07;;;;;;;12.90;10.10;;;7.80;99.90;;;;;;5090160;28;20437;-63
2023/11/11 09:38:33;;;;;;;14.30;11.67;;;7.80;99.90;;;;;;5092831;28;20426;-63
2023/11/11 09:40:59;;;;;;;14.37;10.43;;;7.90;99.90;;;;;;5094025;28;20176;-63
2023/11/11 09:43:25;;;;;;;16.60;10.67;;;7.90;99.90;;;;;;5089623;28;21239;-63
2023/11/11 09:45:51;;;;;;;15.70;11.37;;;7.80;99.90;;;;;;5091567;28;20452;-64
2023/11/11 09:48:17;;;;;;;12.07;10.77;;;7.80;99.90;;;;;;5090523;28;20959;-63
2023/11/11 09:50:46;;;;;;;17.80;11.10;;;7.80;99.90;;;;;;5091311;28;20525;-63
2023/11/11 09:53:15;;;;;;;12.60;10.50;;;7.90;99.90;;;;;;5088710;28;20195;-63
2023/11/11 09:55:41;;;;;;;14.10;11.07;;;7.80;99.90;;;;;;5092998;28;20445;-63
2023/11/11 09:58:08;;;;;;;13.30;11.17;;;7.90;99.90;;;;;;5087321;28;20446;-63
2023/11/11 10:00:34;;;;;;;11.90;10.60;;;7.90;99.90;;;;;;5093340;28;20465;-63
2023/11/11 10:03:00;;;;;;;14.87;10.83;;;7.90;99.90;;;;;;5072338;28;21332;-63
2023/11/11 10:05:26;;;;;;;14.57;10.70;;;7.90;99.90;;;;;;5090509;28;20429;-63
2023/11/11 10:07:52;;;;;;;17.70;10.57;;;7.80;99.90;;;;;;5087886;28;20509;-63
2023/11/11 10:10:18;;;;;;;11.30;10.10;;;7.90;99.90;;;;;;5087863;28;20441;-64
2023/11/11 10:12:44;;;;;;;14.07;9.67;;;8.00;99.90;;;;;;5089490;28;20180;-62
2023/11/11 10:15:10;;;;;;;17.57;9.80;;;8.00;99.90;;;;;;5088149;28;20465;-64
2023/11/11 10:17:39;;;;;;;12.60;9.70;;;8.00;99.90;;;;;;5090193;28;20206;-62
2023/11/11 10:20:15;;;;;;;11.90;9.10;;;8.00;99.90;;;;;;5089763;28;20591;-62
2023/11/11 10:22:46;;;;;;;17.03;11.00;;;7.90;99.90;;;;;;5089709;28;20433;-62
2023/11/11 10:25:17;;;;;;;15.73;10.70;;;7.90;99.90;;;;;;5085914;28;20491;-63
2023/11/11 10:27:53;;;;;;;18.40;10.80;;;7.90;99.90;;;;;;5089912;28;20433;-63
2023/11/11 10:30:26;;;;;;;15.00;9.70;;;7.90;99.90;;;;;;5089495;28;20500;-64
2023/11/11 10:32:53;;;;;;;11.77;9.10;;;7.90;99.90;;;;;;5089617;28;20430;-62
2023/11/11 10:35:24;;;;;;;13.13;9.60;;;7.90;99.90;;;;;;5086580;28;20427;-64
2023/11/11 10:37:50;;;;;;;16.10;9.97;;;7.80;99.90;;;;;;5087974;28;20512;-62
2023/11/11 10:40:19;;;;;;;11.97;10.67;;;7.90;99.90;;;;;;5089682;28;20445;-63
2023/11/11 10:42:47;;;;;;;12.50;10.37;;;8.00;99.90;;;;;;5056342;28;20434;-64
2023/11/11 10:45:15;;;;;;;12.03;9.87;;;8.00;99.90;;;;;;5088617;28;20502;-63
2023/11/11 10:47:45;;;;;;;12.17;9.30;;;8.10;99.90;;;;;;5087972;28;20442;-64
2023/11/11 10:50:11;;;;;;;14.47;9.87;;;8.00;99.90;;;;;;5090175;28;20580;-64
2023/11/11 10:52:41;;;;;;;14.13;10.27;;;8.00;99.90;;;;;;5088774;28;20422;-64
2023/11/11 10:55:08;;;;;;;13.27;10.33;;;8.00;99.90;;;;;;5092081;28;21035;-62
2023/11/11 10:57:35;;;;;;;12.57;9.93;;;8.00;99.90;;;;;;5089563;28;20886;-63
2023/11/11 11:00:01;;;;;;;14.87;9.60;;;8.00;99.90;;;;;;5093271;28;20434;-62
2023/11/11 11:02:27;;;;;;;13.27;9.23;;;8.00;99.90;;;;;;5089103;28;21249;-64
2023/11/11 11:04:59;;;;;;;12.97;8.70;;;8.10;99.90;;;;;;5088711;28;20216;-63
2023/11/11 11:07:32;;;;;;;14.50;9.40;;;8.10;99.90;;;;;;5092297;28;20422;-62
2023/11/11 11:10:05;;;;;;;12.40;8.50;;;8.10;99.90;;;;;;5089175;28;21021;-62
2023/11/11 11:12:33;;;;;;;11.73;8.23;;;8.20;99.90;;;;;;5088665;28;20886;-63
2023/11/11 11:15:06;;;;;;;10.10;8.27;;;8.30;99.90;;;;;;5088485;28;20442;-63
2023/11/11 11:17:51;;;;;;;11.33;7.20;;;8.30;99.90;;;;;;5089394;28;20461;-64
2023/11/11 11:20:24;;;;;;;11.60;8.30;;;8.40;99.90;;;;;;5089379;28;20433;-63
2023/11/11 11:23:04;;;;;;;12.57;8.80;;;8.30;99.90;;;;;;5086748;28;20421;-62
2023/11/11 11:25:33;;;;;;;10.43;7.60;;;8.30;99.90;;;;;;5088104;28;20646;-62
2023/11/11 11:28:11;;;;;;;10.07;7.50;;;8.30;99.90;;;;;;5086463;28;21440;-64
2023/11/11 11:30:49;;;;;;;10.77;8.70;;;8.30;99.90;;;;;;5087152;28;20433;-64
2023/11/11 11:33:20;;;;;;;10.33;7.47;;;8.30;99.90;;;;;;5087304;28;21003;-63
2023/11/11 11:35:57;;;;;;;9.43;7.33;;;8.30;99.90;;;;;;5086376;28;20433;-64
2023/11/11 11:38:36;;;;;;;8.83;6.87;;;8.30;99.90;;;;;;5088120;28;20425;-64
2023/11/11 11:41:09;;;;;;;10.07;7.93;;;8.30;99.90;;;;;;5088807;28;20498;-62
2023/11/11 11:43:36;;;;;;;12.27;8.80;;;8.40;99.90;;;;;;5087558;28;20523;-64
2023/11/11 11:46:04;;;;;;;18.67;8.90;;;8.50;99.90;;;;;;5086133;28;20449;-64
2023/11/11 11:48:32;;;;;;;10.37;7.43;;;8.60;99.90;;;;;;5088593;28;20928;-63
2023/11/11 11:51:14;;;;;;;12.23;8.23;;;8.70;99.90;;;;;;5087443;28;20438;-64
2023/11/11 11:53:42;;;;;;;10.57;7.80;;;8.80;99.90;;;;;;5086807;28;20428;-64
2023/11/11 11:56:11;;;;;;;12.60;7.53;;;8.90;99.90;;;;;;5088055;28;20425;-63
2023/11/11 11:58:48;;;;;;;10.00;7.03;;;8.90;99.90;;;;;;5088384;28;20442;-63
2023/11/11 12:01:28;;;;;;;11.40;8.00;;;9.00;99.90;;;;;;5088092;28;20422;-62
2023/11/11 12:03:55;;;;;;;9.67;6.80;;;9.00;99.90;;;;;;5086638;28;20497;-64
2023/11/11 12:06:24;;;;;;;9.67;7.40;;;9.00;99.90;;;;;;5088450;28;20475;-62
2023/11/11 12:08:54;;;;;;;9.53;5.97;;;8.90;99.90;;;;;;5088396;28;20414;-64
2023/11/11 12:11:27;;;;;;;8.13;6.43;;;9.00;99.90;;;;;;5088082;28;20819;-62
2023/11/11 12:13:54;;;;;;;9.03;6.10;;;9.10;99.90;;;;;;5068269;28;20445;-63
2023/11/11 12:16:21;;;;;;;5.83;5.23;;;9.20;99.90;;;;;;5087526;28;20509;-64
2023/11/11 12:18:47;;;;;;;9.40;5.70;;;9.30;99.90;;;;;;5088043;28;20442;-62
2023/11/11 12:21:18;;;;;;;8.20;4.90;;;9.30;99.90;;;;;;5086657;28;20432;-63
2023/11/11 12:23:44;;;;;;;12.53;5.80;;;9.40;99.90;;;;;;5083937;28;20658;-64
2023/11/11 12:26:13;;;;;;;9.57;5.30;;;9.40;99.90;;;;;;5087584;28;20501;-64
2023/11/11 12:28:40;;;;;;;7.90;5.57;;;9.50;99.90;;;;;;5087614;28;20541;-63
2023/11/11 12:31:08;;;;;;;7.80;4.80;;;9.50;99.90;;;;;;5087536;28;20432;-64
2023/11/11 12:33:34;;;;;;;8.00;5.40;;;9.40;99.90;;;;;;5084447;28;20469;-64
2023/11/11 12:36:00;;;;;;;7.43;4.87;;;9.40;99.90;;;;;;5087393;28;20430;-62
2023/11/11 12:38:28;;;;;;;5.50;4.90;;;9.40;99.90;;;;;;5087944;28;20508;-64
2023/11/11 12:40:57;;;;;;;9.60;5.50;;;9.30;99.90;;;;;;5087997;28;20180;-64
2023/11/11 12:43:23;;;;;;;8.40;4.40;;;9.30;99.90;;;;;;5089146;28;20561;-62
2023/11/11 12:45:51;;;;;;;6.03;4.20;;;9.30;99.90;;;;;;5091317;28;20445;-62